sensor_id;sensor_type;location;lat;lon;timestamp;pressure;altitude;pressure_sealevel;temperature;humidity
41945;BME280;63122;52.424;13.458;2023-07-02T00:01:22;99754.22;;;17.25;100.00
41945;BME280;63122;52.424;13.458;2023-07-02T00:03:19;99750.31;;;17.27;100.00
41945;BME280;63122;52.424;13.458;2023-07-02T00:05:19;99750.97;;;17.23;100.00
41945;BME280;63122;52.424;13.458;2023-07-02T00:07:17;99761.84;;;17.21;100.00
41945;BME280;63122;52.424;13.458;2023-07-02T00:09:16;99762.66;;;17.22;100.00
41945;BME280;63122;52.424;13.458;2023-07-02T00:11:13;99763.94;;;17.19;100.00
41945;BME280;63122;52.424;13.458;2023-07-02T00:13:15;99759.84;;;17.17;100.00
41945;BME280;63122;52.424;13.458;2023-07-02T00:15:25;99756.97;;;17.18;100.00
41945;BME280;63122;52.424;13.458;2023-07-02T00:17:28;99755.94;;;17.19;100.00
41945;BME280;63122;52.424;13.458;2023-07-02T00:19:28;99755.69;;;17.21;100.00
41945;BME280;63122;52.424;13.458;2023-07-02T00:21:26;99757.75;;;17.19;100.00
41945;BME280;63122;52.424;13.458;2023-07-02T00:23:28;99758.81;;;17.18;100.00
41945;BME280;63122;52.424;13.458;2023-07-02T00:25:29;99758.59;;;17.19;100.00
41945;BME280;63122;52.424;13.458;2023-07-02T00:27:25;99749.13;;;17.23;100.00
41945;BME280;63122;52.424;13.458;2023-07-02T00:29:23;99754.47;;;17.23;100.00
41945;BME280;63122;52.424;13.458;2023-07-02T00:31:19;99754.03;;;17.26;100.00
41945;BME280;63122;52.424;13.458;2023-07-02T00:33:24;99745.16;;;17.33;100.00
41945;BME280;63122;52.424;13.458;2023-07-02T00:35:23;99757.00;;;17.37;100.00
41945;BME280;63122;52.424;13.458;2023-07-02T00:37:19;99764.56;;;17.40;100.00
41945;BME280;63122;52.424;13.458;2023-07-02T00:39:16;99765.97;;;17.42;100.00
41945;BME280;63122;52.424;13.458;2023-07-02T00:41:34;99755.31;;;17.42;100.00
41945;BME280;63122;52.424;13.458;2023-07-02T00:43:31;99764.78;;;17.38;100.00
41945;BME280;63122;52.424;13.458;2023-07-02T00:45:34;99761.88;;;17.40;100.00
41945;BME280;63122;52.424;13.458;2023-07-02T00:47:35;99763.31;;;17.42;100.00
41945;BME280;63122;52.424;13.458;2023-07-02T00:49:34;99769.44;;;17.43;100.00
41945;BME280;63122;52.424;13.458;2023-07-02T00:51:43;99773.16;;;17.42;100.00
41945;BME280;63122;52.424;13.458;2023-07-02T00:53:39;99779.34;;;17.36;100.00
41945;BME280;63122;52.424;13.458;2023-07-02T00:55:34;99767.50;;;17.32;100.00
41945;BME280;63122;52.424;13.458;2023-07-02T00:57:30;99766.91;;;17.30;100.00
41945;BME280;63122;52.424;13.458;2023-07-02T00:59:25;99761.97;;;17.33;100.00
41945;BME280;63122;52.424;13.458;2023-07-02T01:01:22;99755.81;;;17.33;100.00
41945;BME280;63122;52.424;13.458;2023-07-02T01:03:18;99759.47;;;17.38;100.00
41945;BME280;63122;52.424;13.458;2023-07-02T01:05:16;99756.56;;;17.40;100.00
41945;BME280;63122;52.424;13.458;2023-07-02T01:07:14;99755.75;;;17.39;100.00
41945;BME280;63122;52.424;13.458;2023-07-02T01:09:10;99760.69;;;17.36;100.00
41945;BME280;63122;52.424;13.458;2023-07-02T01:11:05;99757.00;;;17.37;100.00
41945;BME280;63122;52.424;13.458;2023-07-02T01:13:06;99765.88;;;17.31;100.00
41945;BME280;63122;52.424;13.458;2023-07-02T01:15:05;99767.72;;;17.30;100.00
41945;BME280;63122;52.424;13.458;2023-07-02T01:17:02;99768.75;;;17.29;100.00
41945;BME280;63122;52.424;13.458;2023-07-02T01:18:59;99762.63;;;17.29;100.00
41945;BME280;63122;52.424;13.458;2023-07-02T01:20:58;99773.91;;;17.24;100.00
41945;BME280;63122;52.424;13.458;2023-07-02T01:22:58;99771.66;;;17.27;100.00
41945;BME280;63122;52.424;13.458;2023-07-02T01:24:55;99774.50;;;17.26;100.00
41945;BME280;63122;52.424;13.458;2023-07-02T01:26:50;99767.13;;;17.28;100.00
41945;BME280;63122;52.424;13.458;2023-07-02T01:28:47;99775.09;;;17.28;100.00
41945;BME280;63122;52.424;13.458;2023-07-02T01:30:43;99771.19;;;17.31;100.00
41945;BME280;63122;52.424;13.458;2023-07-02T01:32:39;99769.78;;;17.28;100.00
41945;BME280;63122;52.424;13.458;2023-07-02T01:34:35;99773.91;;;17.24;100.00
41945;BME280;63122;52.424;13.458;2023-07-02T01:36:32;99769.25;;;17.19;100.00
41945;BME280;63122;52.424;13.458;2023-07-02T01:38:28;99766.34;;;17.21;100.00
41945;BME280;63122;52.424;13.458;2023-07-02T01:40:23;99770.00;;;17.26;100.00
41945;BME280;63122;52.424;13.458;2023-07-02T01:42:19;99767.13;;;17.28;100.00
41945;BME280;63122;52.424;13.458;2023-07-02T01:44:14;99772.03;;;17.31;100.00
41945;BME280;63122;52.424;13.458;2023-07-02T01:46:10;99776.75;;;17.29;100.00
41945;BME280;63122;52.424;13.458;2023-07-02T01:48:05;99779.84;;;17.26;100.00
41945;BME280;63122;52.424;13.458;2023-07-02T01:50:02;99783.38;;;17.20;100.00
41945;BME280;63122;52.424;13.458;2023-07-02T01:52:01;99783.19;;;17.21;100.00
41945;BME280;63122;52.424;13.458;2023-07-02T01:53:56;99786.22;;;17.25;100.00
41945;BME280;63122;52.424;13.458;2023-07-02T01:55:51;99795.34;;;17.10;100.00
41945;BME280;63122;52.424;13.458;2023-07-02T01:57:47;99783.69;;;17.05;100.00
41945;BME280;63122;52.424;13.458;2023-07-02T01:59:42;99788.00;;;17.06;100.00
41945;BME280;63122;52.424;13.458;2023-07-02T02:01:37;99791.53;;;17.00;100.00
41945;BME280;63122;52.424;13.458;2023-07-02T02:03:34;99790.66;;;17.06;100.00
41945;BME280;63122;52.424;13.458;2023-07-02T02:05:29;99791.94;;;17.03;100.00
41945;BME280;63122;52.424;13.458;2023-07-02T02:07:27;99785.75;;;17.03;100.00
41945;BME280;63122;52.424;13.458;2023-07-02T02:09:22;99787.19;;;17.05;100.00
41945;BME280;63122;52.424;13.458;2023-07-02T02:11:20;99782.66;;;17.06;100.00
41945;BME280;63122;52.424;13.458;2023-07-02T02:13:15;99777.78;;;17.03;100.00
41945;BME280;63122;52.424;13.458;2023-07-02T02:15:11;99778.22;;;17.00;100.00
41945;BME280;63122;52.424;13.458;2023-07-02T02:17:06;99777.19;;;17.01;100.00
41945;BME280;63122;52.424;13.458;2023-07-02T02:19:02;99776.53;;;17.05;100.00
41945;BME280;63122;52.424;13.458;2023-07-02T02:20:58;99776.69;;;17.10;100.00
41945;BME280;63122;52.424;13.458;2023-07-02T02:22:55;99781.34;;;17.15;100.00
41945;BME280;63122;52.424;13.458;2023-07-02T02:24:51;99789.41;;;17.08;100.00
41945;BME280;63122;52.424;13.458;2023-07-02T02:26:46;99785.78;;;16.96;100.00
41945;BME280;63122;52.424;13.458;2023-07-02T02:28:42;99800.94;;;16.95;100.00
41945;BME280;63122;52.424;13.458;2023-07-02T02:30:37;99797.91;;;16.92;100.00
41945;BME280;63122;52.424;13.458;2023-07-02T02:32:32;99810.63;;;16.90;100.00
41945;BME280;63122;52.424;13.458;2023-07-02T02:34:28;99801.63;;;16.84;100.00
41945;BME280;63122;52.424;13.458;2023-07-02T02:36:24;99806.78;;;16.79;100.00
41945;BME280;63122;52.424;13.458;2023-07-02T02:38:21;99797.75;;;16.80;100.00
41945;BME280;63122;52.424;13.458;2023-07-02T02:40:17;99798.53;;;16.87;100.00
41945;BME280;63122;52.424;13.458;2023-07-02T02:42:12;99805.72;;;16.87;100.00
41945;BME280;63122;52.424;13.458;2023-07-02T02:44:07;99797.56;;;16.81;100.00
41945;BME280;63122;52.424;13.458;2023-07-02T02:46:02;99797.59;;;16.75;100.00
41945;BME280;63122;52.424;13.458;2023-07-02T02:47:58;99789.16;;;16.78;100.00
41945;BME280;63122;52.424;13.458;2023-07-02T02:49:53;99787.72;;;16.82;100.00
41945;BME280;63122;52.424;13.458;2023-07-02T02:51:48;99794.22;;;16.86;100.00
41945;BME280;63122;52.424;13.458;2023-07-02T02:53:46;99795.94;;;16.80;100.00
41945;BME280;63122;52.424;13.458;2023-07-02T02:55:41;99797.16;;;16.78;100.00
41945;BME280;63122;52.424;13.458;2023-07-02T02:57:36;99802.47;;;16.78;100.00
41945;BME280;63122;52.424;13.458;2023-07-02T02:59:32;99805.38;;;16.76;100.00
41945;BME280;63122;52.424;13.458;2023-07-02T03:01:27;99793.56;;;16.65;100.00
41945;BME280;63122;52.424;13.458;2023-07-02T03:03:23;99807.28;;;16.62;100.00
41945;BME280;63122;52.424;13.458;2023-07-02T03:05:19;99803.59;;;16.63;100.00
41945;BME280;63122;52.424;13.458;2023-07-02T03:07:14;99808.09;;;16.63;100.00
41945;BME280;63122;52.424;13.458;2023-07-02T03:09:12;99808.94;;;16.63;100.00
41945;BME280;63122;52.424;13.458;2023-07-02T03:11:07;99810.94;;;16.68;100.00
41945;BME280;63122;52.424;13.458;2023-07-02T03:13:02;99805.41;;;16.69;100.00
41945;BME280;63122;52.424;13.458;2023-07-02T03:14:58;99808.94;;;16.63;100.00
41945;BME280;63122;52.424;13.458;2023-07-02T03:16:53;99809.16;;;16.55;100.00
41945;BME280;63122;52.424;13.458;2023-07-02T03:18:48;99809.16;;;16.55;100.00
41945;BME280;63122;52.424;13.458;2023-07-02T03:20:43;99807.91;;;16.58;100.00
41945;BME280;63122;52.424;13.458;2023-07-02T03:22:39;99816.34;;;16.54;100.00
41945;BME280;63122;52.424;13.458;2023-07-02T03:24:37;99824.53;;;16.53;100.00
41945;BME280;63122;52.424;13.458;2023-07-02T03:26:32;99813.00;;;16.59;100.00
41945;BME280;63122;52.424;13.458;2023-07-02T03:28:28;99809.75;;;16.57;100.00
41945;BME280;63122;52.424;13.458;2023-07-02T03:30:23;99812.63;;;16.55;100.00
41945;BME280;63122;52.424;13.458;2023-07-02T03:32:18;99804.84;;;16.54;100.00
41945;BME280;63122;52.424;13.458;2023-07-02T03:34:14;99809.81;;;16.50;100.00
41945;BME280;63122;52.424;13.458;2023-07-02T03:36:09;99816.34;;;16.48;100.00
41945;BME280;63122;52.424;13.458;2023-07-02T03:38:05;99817.19;;;16.48;100.00
41945;BME280;63122;52.424;13.458;2023-07-02T03:40:03;99821.06;;;16.52;100.00
41945;BME280;63122;52.424;13.458;2023-07-02T03:41:59;99809.38;;;16.53;100.00
41945;BME280;63122;52.424;13.458;2023-07-02T03:43:54;99815.72;;;16.52;100.00
41945;BME280;63122;52.424;13.458;2023-07-02T03:45:49;99818.81;;;16.49;100.00
41945;BME280;63122;52.424;13.458;2023-07-02T03:47:45;99814.69;;;16.53;100.00
41945;BME280;63122;52.424;13.458;2023-07-02T03:49:40;99813.00;;;16.59;100.00
41945;BME280;63122;52.424;13.458;2023-07-02T03:51:36;99823.91;;;16.51;100.00
41945;BME280;63122;52.424;13.458;2023-07-02T03:53:31;99823.53;;;16.47;100.00
41945;BME280;63122;52.424;13.458;2023-07-02T03:55:29;99827.59;;;16.50;100.00
41945;BME280;63122;52.424;13.458;2023-07-02T03:57:25;99821.06;;;16.46;100.00
41945;BME280;63122;52.424;13.458;2023-07-02T03:59:20;99823.72;;;16.46;100.00
41945;BME280;63122;52.424;13.458;2023-07-02T04:01:16;99819.00;;;16.48;100.00
41945;BME280;63122;52.424;13.458;2023-07-02T04:03:11;99826.41;;;16.46;100.00
41945;BME280;63122;52.424;13.458;2023-07-02T04:05:07;99824.34;;;16.48;100.00
41945;BME280;63122;52.424;13.458;2023-07-02T04:07:04;99833.34;;;16.53;100.00
41945;BME280;63122;52.424;13.458;2023-07-02T04:09:00;99842.13;;;16.54;100.00
41945;BME280;63122;52.424;13.458;2023-07-02T04:10:59;99833.53;;;16.52;100.00
41945;BME280;63122;52.424;13.458;2023-07-02T04:12:55;99834.78;;;16.49;100.00
41945;BME280;63122;52.424;13.458;2023-07-02T04:14:50;99841.53;;;16.45;100.00
41945;BME280;63122;52.424;13.458;2023-07-02T04:16:46;99838.06;;;16.45;100.00
41945;BME280;63122;52.424;13.458;2023-07-02T04:18:41;99849.75;;;16.44;100.00
41945;BME280;63122;52.424;13.458;2023-07-02T04:20:36;99860.38;;;16.50;100.00
41945;BME280;63122;52.424;13.458;2023-07-02T04:22:32;99854.22;;;16.50;100.00
41945;BME280;63122;52.424;13.458;2023-07-02T04:24:27;99851.59;;;16.43;100.00
41945;BME280;63122;52.424;13.458;2023-07-02T04:26:26;99848.72;;;16.45;100.00
41945;BME280;63122;52.424;13.458;2023-07-02T04:28:41;99854.25;;;16.43;100.00
41945;BME280;63122;52.424;13.458;2023-07-02T04:30:36;99854.66;;;16.40;100.00
41945;BME280;63122;52.424;13.458;2023-07-02T04:32:31;99852.81;;;16.47;100.00
41945;BME280;63122;52.424;13.458;2023-07-02T04:34:27;99857.50;;;16.45;100.00
41945;BME280;63122;52.424;13.458;2023-07-02T04:36:22;99860.59;;;16.42;100.00
41945;BME280;63122;52.424;13.458;2023-07-02T04:38:17;99861.19;;;16.44;100.00
41945;BME280;63122;52.424;13.458;2023-07-02T04:40:12;99861.00;;;16.46;100.00
41945;BME280;63122;52.424;13.458;2023-07-02T04:42:11;99870.00;;;16.51;100.00
41945;BME280;63122;52.424;13.458;2023-07-02T04:44:07;99863.47;;;16.40;100.00
41945;BME280;63122;52.424;13.458;2023-07-02T04:46:03;99854.66;;;16.40;100.00
41945;BME280;63122;52.424;13.458;2023-07-02T04:48:00;99860.41;;;16.44;100.00
41945;BME280;63122;52.424;13.458;2023-07-02T04:49:55;99858.94;;;16.48;100.00
41945;BME280;63122;52.424;13.458;2023-07-02T04:51:51;99869.19;;;16.44;100.00
41945;BME280;63122;52.424;13.458;2023-07-02T04:53:46;99869.78;;;16.46;100.00
41945;BME280;63122;52.424;13.458;2023-07-02T04:55:41;99879.63;;;16.46;100.00
41945;BME280;63122;52.424;13.458;2023-07-02T04:57:39;99874.50;;;16.51;100.00
41945;BME280;63122;52.424;13.458;2023-07-02T04:59:36;99875.31;;;16.51;100.00
41945;BME280;63122;52.424;13.458;2023-07-02T05:01:31;99882.88;;;16.54;100.00
41945;BME280;63122;52.424;13.458;2023-07-02T05:03:27;99874.91;;;16.54;100.00
41945;BME280;63122;52.424;13.458;2023-07-02T05:05:22;99873.03;;;16.62;100.00
41945;BME280;63122;52.424;13.458;2023-07-02T05:07:17;99873.03;;;16.62;100.00
41945;BME280;63122;52.424;13.458;2023-07-02T05:09:13;99871.38;;;16.61;100.00
41945;BME280;63122;52.424;13.458;2023-07-02T05:11:08;99884.53;;;16.55;100.00
41945;BME280;63122;52.424;13.458;2023-07-02T05:13:06;99874.06;;;16.54;100.00
41945;BME280;63122;52.424;13.458;2023-07-02T05:15:01;99866.91;;;16.61;100.00
41945;BME280;63122;52.424;13.458;2023-07-02T05:16:56;99887.56;;;16.59;100.00
41945;BME280;63122;52.424;13.458;2023-07-02T05:18:52;99883.88;;;16.60;100.00
41945;BME280;63122;52.424;13.458;2023-07-02T05:20:47;99886.16;;;16.57;100.00
41945;BME280;63122;52.424;13.458;2023-07-02T05:22:43;99885.13;;;16.58;100.00
41945;BME280;63122;52.424;13.458;2023-07-02T05:24:38;99895.56;;;16.59;100.00
41945;BME280;63122;52.424;13.458;2023-07-02T05:26:34;99887.16;;;16.62;100.00
41945;BME280;63122;52.424;13.458;2023-07-02T05:28:32;99877.13;;;16.64;100.00
41945;BME280;63122;52.424;13.458;2023-07-02T05:30:27;99889.59;;;16.64;100.00
41945;BME280;63122;52.424;13.458;2023-07-02T05:32:23;99884.88;;;16.66;100.00
41945;BME280;63122;52.424;13.458;2023-07-02T05:34:18;99900.84;;;16.66;100.00
41945;BME280;63122;52.424;13.458;2023-07-02T05:36:14;99896.38;;;16.66;100.00
41945;BME280;63122;52.424;13.458;2023-07-02T05:38:10;99877.72;;;16.66;100.00
41945;BME280;63122;52.424;13.458;2023-07-02T05:40:07;99884.28;;;16.64;100.00
41945;BME280;63122;52.424;13.458;2023-07-02T05:42:05;99887.78;;;16.64;100.00
41945;BME280;63122;52.424;13.458;2023-07-02T05:44:03;99891.22;;;16.72;100.00
41945;BME280;63122;52.424;13.458;2023-07-02T05:45:59;99893.88;;;16.72;100.00
41945;BME280;63122;52.424;13.458;2023-07-02T05:47:55;99905.75;;;16.76;100.00
41945;BME280;63122;52.424;13.458;2023-07-02T05:49:50;99900.16;;;16.84;100.00
41945;BME280;63122;52.424;13.458;2023-07-02T05:51:45;99919.84;;;16.83;100.00
41945;BME280;63122;52.424;13.458;2023-07-02T05:53:41;99905.91;;;16.81;100.00
41945;BME280;63122;52.424;13.458;2023-07-02T05:55:36;99905.50;;;16.84;100.00
41945;BME280;63122;52.424;13.458;2023-07-02T05:57:31;99909.16;;;16.90;100.00
41945;BME280;63122;52.424;13.458;2023-07-02T05:59:29;99903.84;;;16.90;100.00
41945;BME280;63122;52.424;13.458;2023-07-02T06:01:24;99912.66;;;16.90;100.00
41945;BME280;63122;52.424;13.458;2023-07-02T06:03:20;99907.34;;;16.83;100.00
41945;BME280;63122;52.424;13.458;2023-07-02T06:05:15;99923.97;;;16.79;100.00
41945;BME280;63122;52.424;13.458;2023-07-02T06:07:11;99914.94;;;16.80;100.00
41945;BME280;63122;52.424;13.458;2023-07-02T06:09:06;99918.81;;;16.84;100.00
41945;BME280;63122;52.424;13.458;2023-07-02T06:11:02;99910.63;;;16.86;100.00
41945;BME280;63122;52.424;13.458;2023-07-02T06:12:57;99927.22;;;16.88;100.00
41945;BME280;63122;52.424;13.458;2023-07-02T06:14:55;99920.22;;;16.93;100.00
41945;BME280;63122;52.424;13.458;2023-07-02T06:16:50;99923.25;;;16.97;100.00
41945;BME280;63122;52.424;13.458;2023-07-02T06:18:50;99913.44;;;16.97;100.00
41945;BME280;63122;52.424;13.458;2023-07-02T06:20:46;99916.09;;;16.97;100.00
41945;BME280;63122;52.424;13.458;2023-07-02T06:22:42;99904.63;;;17.04;100.00
41945;BME280;63122;52.424;13.458;2023-07-02T06:24:38;99907.69;;;17.07;100.00
41945;BME280;63122;52.424;13.458;2023-07-02T06:26:33;99901.91;;;17.17;100.00
41945;BME280;63122;52.424;13.458;2023-07-02T06:28:29;99924.19;;;17.23;100.00
41945;BME280;63122;52.424;13.458;2023-07-02T06:30:27;99915.41;;;17.22;100.00
41945;BME280;63122;52.424;13.458;2023-07-02T06:32:22;99912.91;;;17.27;100.00
41945;BME280;63122;52.424;13.458;2023-07-02T06:34:17;99914.13;;;17.25;100.00
41945;BME280;63122;52.424;13.458;2023-07-02T06:36:13;99898.38;;;17.23;100.00
41945;BME280;63122;52.424;13.458;2023-07-02T06:38:10;99900.38;;;17.28;100.00
41945;BME280;63122;52.424;13.458;2023-07-02T06:40:06;99895.88;;;17.29;100.00
41945;BME280;63122;52.424;13.458;2023-07-02T06:42:02;99890.31;;;17.30;100.00
41945;BME280;63122;52.424;13.458;2023-07-02T06:43:57;99890.50;;;17.35;100.00
41945;BME280;63122;52.424;13.458;2023-07-02T06:45:55;99888.69;;;17.29;100.00
41945;BME280;63122;52.424;13.458;2023-07-02T06:47:50;99896.06;;;17.27;100.00
41945;BME280;63122;52.424;13.458;2023-07-02T06:49:46;99912.66;;;17.29;100.00
41945;BME280;63122;52.424;13.458;2023-07-02T06:51:41;99900.94;;;17.37;100.00
41945;BME280;63122;52.424;13.458;2023-07-02T06:53:37;99907.91;;;17.38;100.00
41945;BME280;63122;52.424;13.458;2023-07-02T06:55:32;99915.03;;;17.44;100.00
41945;BME280;63122;52.424;13.458;2023-07-02T06:57:27;99927.53;;;17.50;100.00
41945;BME280;63122;52.424;13.458;2023-07-02T06:59:22;99925.91;;;17.49;100.00
41945;BME280;63122;52.424;13.458;2023-07-02T07:01:20;99928.59;;;17.42;100.00
41945;BME280;63122;52.424;13.458;2023-07-02T07:03:16;99903.53;;;17.50;100.00
41945;BME280;63122;52.424;13.458;2023-07-02T07:05:12;99909.41;;;17.59;100.00
41945;BME280;63122;52.424;13.458;2023-07-02T07:07:07;99926.81;;;17.62;100.00
41945;BME280;63122;52.424;13.458;2023-07-02T07:09:02;99914.09;;;17.64;100.00
41945;BME280;63122;52.424;13.458;2023-07-02T07:10:58;99919.41;;;17.64;100.00
41945;BME280;63122;52.424;13.458;2023-07-02T07:12:53;99917.78;;;17.63;100.00
41945;BME280;63122;52.424;13.458;2023-07-02T07:14:48;99902.19;;;17.66;100.00
41945;BME280;63122;52.424;13.458;2023-07-02T07:16:46;99917.94;;;17.68;100.00
41945;BME280;63122;52.424;13.458;2023-07-02T07:18:43;99915.69;;;17.72;100.00
41945;BME280;63122;52.424;13.458;2023-07-02T07:20:41;99919.09;;;17.79;100.00
41945;BME280;63122;52.424;13.458;2023-07-02T07:22:38;99935.78;;;17.74;100.00
41945;BME280;63122;52.424;13.458;2023-07-02T07:24:33;99920.13;;;17.78;100.00
41945;BME280;63122;52.424;13.458;2023-07-02T07:26:28;99913.81;;;17.72;100.00
41945;BME280;63122;52.424;13.458;2023-07-02T07:28:24;99910.72;;;17.75;100.00
41945;BME280;63122;52.424;13.458;2023-07-02T07:30:19;99906.44;;;17.74;100.00
41945;BME280;63122;52.424;13.458;2023-07-02T07:32:20;99907.84;;;17.77;100.00
41945;BME280;63122;52.424;13.458;2023-07-02T07:34:15;99912.09;;;17.84;100.00
41945;BME280;63122;52.424;13.458;2023-07-02T07:36:11;99917.03;;;17.81;100.00
41945;BME280;63122;52.424;13.458;2023-07-02T07:38:06;99904.47;;;17.88;100.00
41945;BME280;63122;52.424;13.458;2023-07-02T07:40:01;99894.75;;;17.94;100.00
41945;BME280;63122;52.424;13.458;2023-07-02T07:41:58;99919.75;;;17.99;100.00
41945;BME280;63122;52.424;13.458;2023-07-02T07:43:53;99918.13;;;17.98;100.00
41945;BME280;63122;52.424;13.458;2023-07-02T07:45:48;99904.97;;;17.97;100.00
41945;BME280;63122;52.424;13.458;2023-07-02T07:47:47;99916.94;;;17.94;100.00
41945;BME280;63122;52.424;13.458;2023-07-02T07:49:42;99919.13;;;18.04;100.00
41945;BME280;63122;52.424;13.458;2023-07-02T07:51:37;99933.88;;;18.07;100.00
41945;BME280;63122;52.424;13.458;2023-07-02T07:53:32;99942.34;;;17.97;100.00
41945;BME280;63122;52.424;13.458;2023-07-02T07:55:28;99936.38;;;18.02;100.00
41945;BME280;63122;52.424;13.458;2023-07-02T07:57:23;99940.09;;;17.94;100.00
41945;BME280;63122;52.424;13.458;2023-07-02T07:59:18;99945.00;;;17.97;100.00
41945;BME280;63122;52.424;13.458;2023-07-02T08:01:13;99964.13;;;17.94;100.00
41945;BME280;63122;52.424;13.458;2023-07-02T08:03:12;99947.34;;;17.87;100.00
41945;BME280;63122;52.424;13.458;2023-07-02T08:05:07;99939.47;;;17.98;100.00
41945;BME280;63122;52.424;13.458;2023-07-02T08:07:03;99953.00;;;17.97;100.00
41945;BME280;63122;52.424;13.458;2023-07-02T08:09:01;99949.97;;;17.93;100.00
41945;BME280;63122;52.424;13.458;2023-07-02T08:10:56;99957.75;;;17.95;100.00
41945;BME280;63122;52.424;13.458;2023-07-02T08:12:51;99954.53;;;17.86;100.00
41945;BME280;63122;52.424;13.458;2023-07-02T08:14:47;99954.81;;;17.78;100.00
41945;BME280;63122;52.424;13.458;2023-07-02T08:16:42;99956.69;;;17.77;100.00
41945;BME280;63122;52.424;13.458;2023-07-02T08:18:40;99967.16;;;17.72;100.00
41945;BME280;63122;52.424;13.458;2023-07-02T08:20:35;99965.16;;;17.67;100.00
41945;BME280;63122;52.424;13.458;2023-07-02T08:22:31;99963.09;;;17.69;100.00
41945;BME280;63122;52.424;13.458;2023-07-02T08:24:26;99957.31;;;17.73;100.00
41945;BME280;63122;52.424;13.458;2023-07-02T08:26:22;99981.16;;;17.67;100.00
41945;BME280;63122;52.424;13.458;2023-07-02T08:28:18;99962.91;;;17.64;100.00
41945;BME280;63122;52.424;13.458;2023-07-02T08:30:14;99966.78;;;17.68;100.00
41945;BME280;63122;52.424;13.458;2023-07-02T08:32:09;99959.78;;;17.74;100.00
41945;BME280;63122;52.424;13.458;2023-07-02T08:34:07;99970.00;;;17.77;100.00
41945;BME280;63122;52.424;13.458;2023-07-02T08:36:03;99976.41;;;17.69;100.00
41945;BME280;63122;52.424;13.458;2023-07-02T08:37:59;99980.56;;;17.65;100.00
41945;BME280;63122;52.424;13.458;2023-07-02T08:39:55;99975.84;;;17.61;100.00
41945;BME280;63122;52.424;13.458;2023-07-02T08:41:50;99990.06;;;17.54;100.00
41945;BME280;63122;52.424;13.458;2023-07-02T08:43:45;99978.81;;;17.46;100.00
41945;BME280;63122;52.424;13.458;2023-07-02T08:45:42;99984.19;;;17.39;100.00
41945;BME280;63122;52.424;13.458;2023-07-02T08:47:37;99965.69;;;17.44;100.00
41945;BME280;63122;52.424;13.458;2023-07-02T08:49:36;99957.75;;;17.37;100.00
41945;BME280;63122;52.424;13.458;2023-07-02T08:51:31;99954.28;;;17.30;100.00
41945;BME280;63122;52.424;13.458;2023-07-02T08:53:27;99970.06;;;17.32;100.00
41945;BME280;63122;52.424;13.458;2023-07-02T08:55:26;99955.94;;;17.31;100.00
41945;BME280;63122;52.424;13.458;2023-07-02T08:57:22;99968.44;;;17.31;100.00
41945;BME280;63122;52.424;13.458;2023-07-02T08:59:17;99975.00;;;17.28;100.00
41945;BME280;63122;52.424;13.458;2023-07-02T09:01:13;99977.28;;;17.24;100.00
41945;BME280;63122;52.424;13.458;2023-07-02T09:03:13;99975.88;;;17.15;100.00
41945;BME280;63122;52.424;13.458;2023-07-02T09:05:12;99986.19;;;17.05;100.00
41945;BME280;63122;52.424;13.458;2023-07-02T09:07:08;99973.88;;;16.97;100.00
41945;BME280;63122;52.424;13.458;2023-07-02T09:09:04;99970.81;;;17.00;100.00
41945;BME280;63122;52.424;13.458;2023-07-02T09:11:09;99987.63;;;17.01;100.00
41945;BME280;63122;52.424;13.458;2023-07-02T09:13:05;99971.06;;;16.98;100.00
41945;BME280;63122;52.424;13.458;2023-07-02T09:15:04;99987.22;;;17.04;100.00
41945;BME280;63122;52.424;13.458;2023-07-02T09:17:04;99976.75;;;17.09;100.00
41945;BME280;63122;52.424;13.458;2023-07-02T09:19:03;99976.38;;;16.98;100.00
41945;BME280;63122;52.424;13.458;2023-07-02T09:21:03;99981.09;;;17.03;100.00
41945;BME280;63122;52.424;13.458;2023-07-02T09:22:58;100010.94;;;17.12;100.00
41945;BME280;63122;52.424;13.458;2023-07-02T09:24:54;99977.75;;;17.15;100.00
41945;BME280;63122;52.424;13.458;2023-07-02T09:26:51;99981.84;;;17.17;100.00
41945;BME280;63122;52.424;13.458;2023-07-02T09:28:46;99977.59;;;17.03;100.00
41945;BME280;63122;52.424;13.458;2023-07-02T09:30:53;99997.03;;;17.10;100.00
41945;BME280;63122;52.424;13.458;2023-07-02T09:32:48;99990.47;;;17.06;100.00
41945;BME280;63122;52.424;13.458;2023-07-02T09:34:45;99988.19;;;17.16;100.00
41945;BME280;63122;52.424;13.458;2023-07-02T09:36:43;99979.56;;;17.21;100.00
41945;BME280;63122;52.424;13.458;2023-07-02T09:38:39;99990.59;;;17.31;100.00
41945;BME280;63122;52.424;13.458;2023-07-02T09:40:35;99995.69;;;17.33;100.00
41945;BME280;63122;52.424;13.458;2023-07-02T09:42:33;99980.88;;;17.44;100.00
41945;BME280;63122;52.424;13.458;2023-07-02T09:44:31;99987.22;;;17.49;100.00
41945;BME280;63122;52.424;13.458;2023-07-02T09:46:26;99993.81;;;17.40;100.00
41945;BME280;63122;52.424;13.458;2023-07-02T09:48:24;99999.72;;;17.49;100.00
41945;BME280;63122;52.424;13.458;2023-07-02T09:50:21;100013.31;;;17.34;100.00
41945;BME280;63122;52.424;13.458;2023-07-02T09:52:20;99995.69;;;17.33;100.00
41945;BME280;63122;52.424;13.458;2023-07-02T09:54:16;99994.84;;;17.39;100.00
41945;BME280;63122;52.424;13.458;2023-07-02T09:56:12;100000.34;;;17.44;100.00
41945;BME280;63122;52.424;13.458;2023-07-02T09:58:08;99991.41;;;17.64;100.00
41945;BME280;63122;52.424;13.458;2023-07-02T10:00:05;100018.50;;;17.67;100.00
41945;BME280;63122;52.424;13.458;2023-07-02T10:02:00;99992.28;;;17.58;100.00